Map

Track Data

SID SEASON NUMBER BASIN SUBBASIN NAME ISO_TIME NATURE LAT LON WMO_WIND WMO_PRES WMO_AGENCY TRACK_TYPE DIST2LAND LANDFALL IFLAG USA_AGENCY USA_ATCF_ID USA_LAT USA_LON USA_RECORD USA_STATUS USA_WIND USA_PRES USA_SSHS USA_R34_NE USA_R34_SE USA_R34_SW USA_R34_NW USA_R50_NE USA_R50_SE USA_R50_SW USA_R50_NW USA_R64_NE USA_R64_SE USA_R64_SW USA_R64_NW USA_POCI USA_ROCI USA_RMW USA_EYE TOKYO_LAT TOKYO_LON TOKYO_GRADE TOKYO_WIND TOKYO_PRES TOKYO_R50_DIR TOKYO_R50_LONG TOKYO_R50_SHORT TOKYO_R30_DIR TOKYO_R30_LONG TOKYO_R30_SHORT TOKYO_LAND CMA_LAT CMA_LON CMA_CAT CMA_WIND CMA_PRES HKO_LAT HKO_LON HKO_CAT HKO_WIND HKO_PRES NEWDELHI_LAT NEWDELHI_LON NEWDELHI_GRADE NEWDELHI_WIND NEWDELHI_PRES NEWDELHI_CI NEWDELHI_DP NEWDELHI_POCI REUNION_LAT REUNION_LON REUNION_TYPE REUNION_WIND REUNION_PRES REUNION_TNUM REUNION_CI REUNION_RMW REUNION_R34_NE REUNION_R34_SE REUNION_R34_SW REUNION_R34_NW REUNION_R50_NE REUNION_R50_SE REUNION_R50_SW REUNION_R50_NW REUNION_R64_NE REUNION_R64_SE REUNION_R64_SW REUNION_R64_NW BOM_LAT BOM_LON BOM_TYPE BOM_WIND BOM_PRES BOM_TNUM BOM_CI BOM_RMW BOM_R34_NE BOM_R34_SE BOM_R34_SW BOM_R34_NW BOM_R50_NE BOM_R50_SE BOM_R50_SW BOM_R50_NW BOM_R64_NE BOM_R64_SE BOM_R64_SW BOM_R64_NW BOM_ROCI BOM_POCI BOM_EYE BOM_POS_METHOD BOM_PRES_METHOD NADI_LAT NADI_LON NADI_CAT NADI_WIND NADI_PRES WELLINGTON_LAT WELLINGTON_LON WELLINGTON_WIND WELLINGTON_PRES DS824_LAT DS824_LON DS824_STAGE DS824_WIND DS824_PRES TD9636_LAT TD9636_LON TD9636_STAGE TD9636_WIND TD9636_PRES TD9635_LAT TD9635_LON TD9635_WIND TD9635_PRES TD9635_ROCI NEUMANN_LAT NEUMANN_LON NEUMANN_CLASS NEUMANN_WIND NEUMANN_PRES MLC_LAT MLC_LON MLC_CLASS MLC_WIND MLC_PRES USA_GUST BOM_GUST BOM_GUST_PER REUNION_GUST REUNION_GUST_PER USA_SEAHGT USA_SEARAD_NE USA_SEARAD_SE USA_SEARAD_SW USA_SEARAD_NW STORM_SPEED STORM_DIR
1911070S16066 1911 22 SI MM NOT_NAMED 1911-03-11 00:00:00 TS -15.6000 66.0000 main 1012 991 _________O____ -1 -15.6000 66.0000 TC 6 200
1911070S16066 1911 22 SI MM NOT_NAMED 1911-03-11 03:00:00 TS -15.8600 65.8976 main 986 965 _________P____ -1 -15.8600 65.8976 TC 5 201
1911070S16066 1911 22 SI MM NOT_NAMED 1911-03-11 06:00:00 TS -16.1000 65.8000 main 965 945 _________O____ -1 -16.1000 65.8000 TC 5 202
1911070S16066 1911 22 SI MM NOT_NAMED 1911-03-11 09:00:00 TS -16.3075 65.7074 main 945 926 _________P____ -1 -16.3075 65.7074 TC 4 206
1911070S16066 1911 22 SI MM NOT_NAMED 1911-03-11 12:00:00 TS -16.5000 65.6000 main 926 906 _________O____ -1 -16.5000 65.6000 TC 5 213
1911070S16066 1911 22 SI MM NOT_NAMED 1911-03-11 15:00:00 TS -16.6925 65.4500 main 906 877 _________P____ -1 -16.6925 65.4500 TC 5 216
1911070S16066 1911 22 SI MM NOT_NAMED 1911-03-11 18:00:00 TS -16.9000 65.3000 main 877 857 _________O____ -1 -16.9000 65.3000 TC 5 209
1911070S16066 1911 22 SI MM NOT_NAMED 1911-03-11 21:00:00 TS -17.1500 65.1850 main 857 833 _________P____ -1 -17.1500 65.1850 TC 5 201
1911070S16066 1911 22 SI MM NOT_NAMED 1911-03-12 00:00:00 TS -17.4000 65.1000 main 833 815 _________O____ -1 -17.4000 65.1000 TC 5 197
1911070S16066 1911 22 SI MM NOT_NAMED 1911-03-12 03:00:00 TS -17.6000 65.0424 main 815 806 _________P____ -1 -17.6000 65.0424 TC 4 193
1911070S16066 1911 22 SI MM NOT_NAMED 1911-03-12 06:00:00 TS -17.8000 65.0000 main 806 798 _________O____ -1 -17.8000 65.0000 TC 5 191
1911070S16066 1911 22 SI MM NOT_NAMED 1911-03-12 09:00:00 TS -18.0575 64.9500 main 795 777 _________P____ -1 -18.0575 64.9500 TC 5 191
1911070S16066 1911 22 SI MM NOT_NAMED 1911-03-12 12:00:00 TS -18.3000 64.9000 main 777 761 _________O____ -1 -18.3000 64.9000 TC 4 194
1911070S16066 1911 22 SI MM NOT_NAMED 1911-03-12 15:00:00 TS -18.4650 64.8425 main 761 758 _________P____ -1 -18.4650 64.8425 TC 3 197
1911070S16066 1911 22 SI MM NOT_NAMED 1911-03-12 18:00:00 TS -18.6000 64.8000 main 758 755 _________O____ -1 -18.6000 64.8000 TC 3 191
1911070S16066 1911 22 SI MM NOT_NAMED 1911-03-12 21:00:00 TS -18.7500 64.7850 main 755 749 _________P____ -1 -18.7500 64.7850 TC 3 0
1911070S16066 1911 22 SI MM NOT_NAMED 1911-03-13 00:00:00 TS -18.9000 64.8000 main 749 747 _________O____ -1 -18.9000 64.8000 TC 3 171
1911070S16066 1911 22 SI MM NOT_NAMED 1911-03-13 03:00:00 TS -19.0500 64.8425 main 747 744 _________P____ -1 -19.0500 64.8425 TC 3 163
1911070S16066 1911 22 SI MM NOT_NAMED 1911-03-13 06:00:00 TS -19.2000 64.9000 main 753 751 _________O____ -1 -19.2000 64.9000 TC 3 162
1911070S16066 1911 22 SI MM NOT_NAMED 1911-03-13 09:00:00 TS -19.3575 64.9500 main 759 757 _________P____ -1 -19.3575 64.9500 TC 3 163
1911070S16066 1911 22 SI MM NOT_NAMED 1911-03-13 12:00:00 TS -19.5000 65.0000 main 757 756 _________O____ -1 -19.5000 65.0000 TC 3 157
1911070S16066 1911 22 SI MM NOT_NAMED 1911-03-13 15:00:00 TS -19.6075 65.0575 main 766 765 _________P____ -1 -19.6075 65.0575 TC 2 153
1911070S16066 1911 22 SI MM NOT_NAMED 1911-03-13 18:00:00 TS -19.7000 65.1000 main 765 764 _________O____ -1 -19.7000 65.1000 TC 2 164
1911070S16066 1911 22 SI MM NOT_NAMED 1911-03-13 21:00:00 TS -19.7975 65.1100 main 764 763 _________P____ -1 -19.7975 65.1100 TC 2 172
1911070S16066 1911 22 SI MM NOT_NAMED 1911-03-14 00:00:00 TS -19.9000 65.1000 main 763 _________O____ -1 -19.9000 65.1000 TC 2 192

About IBTrACS Database

This database is a web-friendly format of International Best Track Archive for Climate Stewardship (IBTrACS), a global best track data archive curated by NOAA dating back to 1842.

Updated: 2021-10-08